< < Back
Terminal Aerodrome Forecast


Current Version              Previous Versions:   1  2  3  4  5  6  7  8  9  

Terminal Aerodrome Forecast

532
FTUS42 KCAE 291027 AAB
TAFCAE
TAF AMD
KCAE 291027Z 2910/3006 VRB03KT P6SM SCT060 BKN150
     FM291600 10006KT P6SM SCT040
     FM291900 10006KT P6SM VCSH BKN050 BKN150
     FM300200 VRB03KT P6SM SCT050 BKN150=

Latest METAR

590
SAUS80 KWBC 292000
MTRCAE
METAR KCAE 291956Z VRB04KT 10SM SCT050 SCT110 36/19 A2992 RMK AO2 SLP128
T03610189


USA.gov is the U.S. government's official web portal to all federal, state and local government web resources and services.